Time;durP1;ratioP1;P1;durP2;ratioP2;P2;SDS_P1;SDS_P2;PMS_P1;PMS_P2;Temp;Humidity;BMP_temperature;BMP_pressure;BME280_temperature;BME280_humidity;BME280_pressure;Samples;Min_cycle;Max_cycle;Signal;HPM_P1;HPM_P2
2022/04/17 00:00:42;;;;;;;4.78;2.88;;;6.70;1.00;;;;;;7363042;19;20014;-63
2022/04/17 00:03:12;;;;;;;4.53;2.80;;;6.70;1.00;;;;;;7383228;19;20470;-61
2022/04/17 00:05:42;;;;;;;3.85;2.95;;;6.70;1.00;;;;;;7362990;19;20044;-63
2022/04/17 00:08:12;;;;;;;5.50;3.30;;;6.70;1.00;;;;;;7367804;19;20039;-64
2022/04/17 00:10:46;;;;;;;4.88;2.85;;;6.60;1.00;;;;;;7365188;19;20615;-64
2022/04/17 00:13:16;;;;;;;12.65;3.30;;;6.60;1.00;;;;;;7362774;19;20438;-63
2022/04/17 00:15:46;;;;;;;3.15;2.47;;;6.60;1.00;;;;;;7363861;19;20021;-63
2022/04/17 00:18:16;;;;;;;4.43;3.05;;;6.50;1.00;;;;;;7388370;19;20026;-63
2022/04/17 00:20:46;;;;;;;5.82;3.05;;;6.60;1.00;;;;;;7360834;19;20474;-62
2022/04/17 00:23:16;;;;;;;4.57;2.90;;;6.60;1.00;;;;;;7361328;19;20125;-62
2022/04/17 00:25:49;;;;;;;5.13;3.03;;;6.40;1.00;;;;;;7363797;19;20477;-62
2022/04/17 00:28:19;;;;;;;4.47;2.97;;;6.30;1.00;;;;;;7367936;19;20082;-62
2022/04/17 00:30:48;;;;;;;5.50;3.30;;;6.20;1.00;;;;;;7363391;19;20086;-62
2022/04/17 00:33:18;;;;;;;4.53;2.90;;;6.20;1.00;;;;;;7383229;19;20015;-62
2022/04/17 00:35:48;;;;;;;4.63;2.70;;;6.30;1.00;;;;;;7362849;19;20374;-62
2022/04/17 00:38:18;;;;;;;3.72;3.03;;;6.20;1.00;;;;;;7366398;19;20049;-62
2022/04/17 00:40:51;;;;;;;5.57;2.85;;;6.20;1.00;;;;;;7363857;19;20082;-62
2022/04/17 00:43:25;;;;;;;4.78;3.10;;;6.20;1.00;;;;;;7358921;19;20017;-62
2022/04/17 00:45:55;;;;;;;4.40;2.80;;;6.20;1.00;;;;;;7363731;19;20015;-62
2022/04/17 00:48:25;;;;;;;6.40;3.10;;;6.10;1.00;;;;;;7388557;19;20086;-62
2022/04/17 00:50:58;;;;;;;6.05;3.30;;;6.10;1.00;;;;;;7363570;19;20014;-63
2022/04/17 00:53:29;;;;;;;4.45;3.25;;;6.00;1.00;;;;;;7360804;19;20018;-62
2022/04/17 00:56:03;;;;;;;6.35;3.30;;;6.00;1.00;;;;;;7365887;19;20030;-63
2022/04/17 00:58:35;;;;;;;5.35;3.65;;;5.90;1.00;;;;;;7365384;19;20030;-63
2022/04/17 01:01:06;;;;;;;3.70;3.08;;;5.90;1.00;;;;;;7362001;19;20006;-63
2022/04/17 01:03:36;;;;;;;4.55;3.30;;;5.90;1.00;;;;;;7360373;19;20470;-61
2022/04/17 01:06:06;;;;;;;7.65;2.97;;;5.90;1.00;;;;;;7386777;19;20022;-62
2022/04/17 01:08:41;;;;;;;7.70;3.58;;;5.80;1.00;;;;;;7365794;19;20066;-62
2022/04/17 01:11:14;;;;;;;6.57;3.42;;;5.80;1.00;;;;;;7363107;19;20097;-62
2022/04/17 01:13:44;;;;;;;4.80;3.00;;;5.70;1.00;;;;;;7359276;19;20098;-62
2022/04/17 01:16:16;;;;;;;4.50;3.28;;;5.70;1.00;;;;;;7363947;19;20615;-62
2022/04/17 01:18:59;;;;;;;4.63;3.33;;;5.60;1.00;;;;;;7364612;19;20023;-62
2022/04/17 01:21:32;;;;;;;4.70;3.10;;;5.60;1.00;;;;;;7380181;19;20014;-64
2022/04/17 01:27:00;;;;;;;4.53;2.88;;;5.60;1.00;;;;;;7364941;19;20010;-62
2022/04/17 01:29:32;;;;;;;4.30;3.17;;;5.50;1.00;;;;;;7364543;19;20112;-62
2022/04/17 01:32:03;;;;;;;5.90;3.38;;;5.50;1.00;;;;;;7358440;19;20015;-62
2022/04/17 01:34:33;;;;;;;5.50;3.20;;;5.50;1.00;;;;;;7360644;19;20506;-62
2022/04/17 01:37:07;;;;;;;3.75;2.90;;;5.50;1.00;;;;;;7365031;19;20017;-62
2022/04/17 01:39:37;;;;;;;4.07;2.78;;;5.50;1.00;;;;;;7365195;19;20077;-63
2022/04/17 01:42:07;;;;;;;4.75;3.20;;;5.50;1.00;;;;;;7380535;19;20053;-63
2022/04/17 01:44:37;;;;;;;4.82;2.90;;;5.50;1.00;;;;;;7361015;19;20058;-61
2022/04/17 01:47:10;;;;;;;4.70;2.92;;;5.50;1.00;;;;;;7363681;19;20017;-63
2022/04/17 01:49:40;;;;;;;4.22;3.00;;;5.40;1.00;;;;;;7364183;19;20007;-63
2022/04/17 01:52:13;;;;;;;4.38;2.80;;;5.40;1.00;;;;;;7359004;19;20014;-63
2022/04/17 01:54:43;;;;;;;5.60;4.55;;;5.40;1.00;;;;;;7359919;19;20070;-63
2022/04/17 01:57:13;;;;;;;4.35;2.92;;;5.40;1.00;;;;;;7386220;19;20103;-63
2022/04/17 01:59:43;;;;;;;6.30;3.20;;;5.30;1.00;;;;;;7362253;19;20003;-63
2022/04/17 02:02:12;;;;;;;3.38;2.90;;;5.30;1.00;;;;;;7358238;19;20014;-62
2022/04/17 02:04:42;;;;;;;4.72;3.10;;;5.30;1.00;;;;;;7360476;19;20511;-62
2022/04/17 02:07:15;;;;;;;3.47;2.80;;;5.30;1.00;;;;;;7363328;19;20499;-62
2022/04/17 02:09:45;;;;;;;4.40;2.95;;;5.30;1.00;;;;;;7364004;19;20380;-63
2022/04/17 02:12:15;;;;;;;4.03;3.10;;;5.30;1.00;;;;;;7377507;19;20022;-62
2022/04/17 02:14:46;;;;;;;7.30;2.85;;;5.30;1.00;;;;;;7358437;19;20086;-62
2022/04/17 02:17:17;;;;;;;3.90;2.78;;;5.20;1.00;;;;;;7362318;19;20038;-61
2022/04/17 02:19:50;;;;;;;5.00;3.30;;;5.20;1.00;;;;;;7362693;19;20119;-62
2022/04/17 02:22:23;;;;;;;5.20;3.40;;;5.20;1.00;;;;;;7357473;19;20078;-62
2022/04/17 02:24:52;;;;;;;4.45;3.22;;;5.20;1.00;;;;;;7359395;19;20062;-62
2022/04/17 02:27:22;;;;;;;6.05;3.20;;;5.10;1.00;;;;;;7384102;19;20003;-63
2022/04/17 02:29:52;;;;;;;3.83;2.83;;;5.10;1.00;;;;;;7363063;19;20459;-64
2022/04/17 02:32:22;;;;;;;4.28;2.67;;;5.00;1.00;;;;;;7356353;19;20415;-63
2022/04/17 02:34:52;;;;;;;4.15;3.17;;;5.00;1.00;;;;;;7359107;19;20522;-63
2022/04/17 02:37:24;;;;;;;4.43;3.00;;;5.00;1.00;;;;;;7362292;19;20070;-62
2022/04/17 02:39:54;;;;;;;4.50;3.00;;;5.00;1.00;;;;;;7363248;19;20508;-62
2022/04/17 02:42:24;;;;;;;5.75;3.42;;;5.00;1.00;;;;;;7376556;19;20025;-62
2022/04/17 02:44:54;;;;;;;5.05;3.15;;;4.90;1.00;;;;;;7359247;19;20014;-62
2022/04/17 02:50:07;;;;;;;5.50;3.28;;;4.90;1.00;;;;;;7363215;19;20015;-62
2022/04/17 02:52:39;;;;;;;4.60;3.08;;;4.80;1.00;;;;;;7356657;19;20102;-62
2022/04/17 02:55:11;;;;;;;4.88;3.50;;;4.80;1.00;;;;;;7358729;19;20018;-62
2022/04/17 02:57:41;;;;;;;4.07;2.80;;;4.70;1.00;;;;;;7361553;19;20105;-62
2022/04/17 03:00:12;;;;;;;5.00;3.38;;;4.70;1.00;;;;;;7383863;19;20010;-62
2022/04/17 03:05:41;;;;;;;4.22;3.13;;;4.70;1.00;;;;;;7360514;19;20029;-62
2022/04/17 03:08:16;;;;;;;4.38;3.33;;;4.60;1.00;;;;;;7368260;19;20011;-62
2022/04/17 03:10:48;;;;;;;4.18;2.90;;;4.60;1.00;;;;;;7365075;19;20031;-62
2022/04/17 03:13:18;;;;;;;6.57;3.67;;;4.60;1.00;;;;;;7364846;19;20098;-62
2022/04/17 03:15:48;;;;;;;3.95;3.22;;;4.60;1.00;;;;;;7366402;19;20014;-62
2022/04/17 03:18:19;;;;;;;5.18;3.42;;;4.60;1.00;;;;;;7389554;19;20018;-62
2022/04/17 03:20:49;;;;;;;5.32;3.40;;;4.60;1.00;;;;;;7365990;19;20013;-62
2022/04/17 03:23:21;;;;;;;4.72;3.30;;;4.50;1.00;;;;;;7363887;19;20014;-62
2022/04/17 03:25:51;;;;;;;6.43;3.25;;;4.40;1.00;;;;;;7367177;19;20006;-62
2022/04/17 03:28:21;;;;;;;4.10;2.97;;;4.20;1.00;;;;;;7368344;19;20018;-62
2022/04/17 03:30:51;;;;;;;6.80;3.55;;;4.10;1.00;;;;;;7366447;19;20058;-62
2022/04/17 03:33:23;;;;;;;5.65;3.67;;;4.20;1.00;;;;;;7383118;19;20010;-61
2022/04/17 03:35:53;;;;;;;3.72;3.17;;;4.20;1.00;;;;;;7366628;19;20014;-62
2022/04/17 03:38:26;;;;;;;3.92;3.25;;;4.00;1.00;;;;;;7368018;19;20549;-62
2022/04/17 03:40:56;;;;;;;5.70;3.28;;;3.90;1.00;;;;;;7364744;19;20010;-62
2022/04/17 03:43:26;;;;;;;4.88;3.50;;;3.90;1.00;;;;;;7363537;19;20021;-62
2022/04/17 03:45:55;;;;;;;5.35;3.03;;;3.80;1.00;;;;;;7366823;19;20018;-62
2022/04/17 03:48:25;;;;;;;4.05;2.97;;;3.80;1.00;;;;;;7389557;19;20011;-62
2022/04/17 03:50:56;;;;;;;4.45;3.50;;;3.80;1.00;;;;;;7364878;19;20017;-61
2022/04/17 03:53:28;;;;;;;5.13;3.50;;;3.80;1.00;;;;;;7362432;19;20035;-62
2022/04/17 03:55:58;;;;;;;5.25;3.50;;;3.80;1.00;;;;;;7368850;19;20015;-61
2022/04/17 03:58:28;;;;;;;4.78;3.45;;;4.00;1.00;;;;;;7367645;19;20035;-63
2022/04/17 04:00:58;;;;;;;4.47;2.95;;;4.00;1.00;;;;;;7364270;19;20010;-62
2022/04/17 04:03:28;;;;;;;3.95;3.03;;;4.00;1.00;;;;;;7383142;19;20018;-62
2022/04/17 04:05:58;;;;;;;5.57;3.53;;;4.10;1.00;;;;;;7367013;19;20019;-62
2022/04/17 04:08:31;;;;;;;4.63;3.58;;;4.10;1.00;;;;;;7366474;19;20078;-62
2022/04/17 04:11:01;;;;;;;5.35;3.58;;;4.10;1.00;;;;;;7363876;19;20013;-62
2022/04/17 04:13:31;;;;;;;5.28;3.70;;;4.10;1.00;;;;;;7362965;19;20019;-62
2022/04/17 04:16:01;;;;;;;5.35;4.47;;;4.10;1.00;;;;;;7367884;19;20021;-62
2022/04/17 04:18:31;;;;;;;6.88;3.65;;;4.10;1.00;;;;;;7366142;19;20355;-62
2022/04/17 04:21:01;;;;;;;3.95;3.50;;;4.00;1.00;;;;;;7384886;19;20082;-62
2022/04/17 04:23:36;;;;;;;4.55;3.28;;;4.00;1.00;;;;;;7361079;19;20015;-62
2022/04/17 04:26:06;;;;;;;5.15;3.53;;;4.00;1.00;;;;;;7366203;19;20022;-62
2022/04/17 04:28:36;;;;;;;6.28;3.50;;;4.00;1.00;;;;;;7366759;19;20034;-62
2022/04/17 04:31:07;;;;;;;4.97;3.30;;;4.00;1.00;;;;;;7363256;19;20024;-62
2022/04/17 04:33:37;;;;;;;5.70;3.63;;;4.00;1.00;;;;;;7360731;19;20088;-62
2022/04/17 04:36:09;;;;;;;5.55;3.92;;;4.00;1.00;;;;;;7389037;19;20018;-62
2022/04/17 04:38:42;;;;;;;4.90;3.55;;;4.00;1.00;;;;;;7365804;19;20015;-61
2022/04/17 04:41:12;;;;;;;5.93;3.45;;;3.90;1.00;;;;;;7362473;19;20006;-62
2022/04/17 04:43:42;;;;;;;3.75;3.17;;;3.90;1.00;;;;;;7360676;19;20078;-62
2022/04/17 04:46:09;;;;;;;5.50;3.45;;;4.00;1.00;;;;;;7367300;19;20006;-62
2022/04/17 04:51:24;;;;;;;5.25;3.05;;;5.20;1.00;;;;;;7385583;19;20094;-63
2022/04/17 04:53:57;;;;;;;6.15;3.45;;;6.20;1.00;;;;;;7360213;19;20022;-62
2022/04/17 04:56:27;;;;;;;4.90;3.72;;;6.60;1.00;;;;;;7366197;19;20021;-62
2022/04/17 04:58:57;;;;;;;4.10;3.28;;;7.10;1.00;;;;;;7365160;19;20570;-60
2022/04/17 05:01:27;;;;;;;5.32;3.50;;;7.10;1.00;;;;;;7361580;19;20521;-61
2022/04/17 05:03:57;;;;;;;5.20;3.25;;;7.50;1.00;;;;;;7360070;19;20054;-61
2022/04/17 05:06:27;;;;;;;4.80;3.28;;;7.20;1.00;;;;;;7387827;19;20022;-61
2022/04/17 05:08:59;;;;;;;9.68;3.60;;;7.60;1.00;;;;;;7365759;19;20010;-62
2022/04/17 05:11:29;;;;;;;5.03;3.22;;;7.90;1.00;;;;;;7361903;19;20419;-62
2022/04/17 05:13:59;;;;;;;4.25;3.33;;;8.20;1.00;;;;;;7359617;19;20029;-62
2022/04/17 05:16:29;;;;;;;4.07;3.00;;;9.00;1.00;;;;;;7365636;19;20010;-63
2022/04/17 05:19:19;;;;;;;3.30;2.95;;;8.80;1.00;;;;;;7365330;19;20031;-62
2022/04/17 05:21:51;;;;;;;7.18;3.72;;;8.40;1.00;;;;;;7359946;19;20078;-62
2022/04/17 05:24:24;;;;;;;3.78;2.63;;;8.30;1.00;;;;;;7382946;19;20454;-62
2022/04/17 05:26:54;;;;;;;4.47;3.38;;;8.70;1.00;;;;;;7363299;19;20745;-62
2022/04/17 05:29:24;;;;;;;5.95;3.55;;;8.50;1.00;;;;;;7362525;19;20455;-62
2022/04/17 05:31:54;;;;;;;3.63;3.13;;;8.60;1.00;;;;;;7359621;19;20069;-61
2022/04/17 05:34:24;;;;;;;4.20;3.08;;;9.50;1.00;;;;;;7362014;19;20862;-61
2022/04/17 05:36:54;;;;;;;4.45;3.05;;;8.90;1.00;;;;;;7364509;19;20023;-61
2022/04/17 05:39:26;;;;;;;5.70;3.05;;;7.70;1.00;;;;;;7386533;19;20013;-61
2022/04/17 05:41:56;;;;;;;4.97;2.95;;;6.00;1.00;;;;;;7358406;19;20014;-63
2022/04/17 05:44:26;;;;;;;3.97;2.97;;;5.70;1.00;;;;;;7361419;19;20082;-61
2022/04/17 05:46:59;;;;;;;5.18;3.20;;;5.70;1.00;;;;;;7363467;19;20590;-61
2022/04/17 05:49:29;;;;;;;4.70;3.33;;;5.70;1.00;;;;;;7364549;19;20491;-61
2022/04/17 05:52:00;;;;;;;4.65;3.08;;;5.70;1.00;;;;;;7356961;19;20599;-61
2022/04/17 05:54:32;;;;;;;4.03;3.10;;;5.80;1.00;;;;;;7381991;19;20096;-64
2022/04/17 05:57:03;;;;;;;3.72;2.92;;;5.90;1.00;;;;;;7382734;19;20022;-62
2022/04/17 05:59:34;;;;;;;3.88;2.80;;;6.10;1.00;;;;;;7364360;19;20481;-61
2022/04/17 06:02:04;;;;;;;5.85;3.30;;;6.10;1.00;;;;;;7356882;19;20094;-60
2022/04/17 06:04:40;;;;;;;3.95;2.85;;;6.20;1.00;;;;;;7359825;19;20014;-61
2022/04/17 06:07:10;;;;;;;6.78;3.25;;;6.10;1.00;;;;;;7363755;19;20125;-61
2022/04/17 06:09:42;;;;;;;4.53;3.42;;;6.10;1.00;;;;;;7364082;19;20016;-62
2022/04/17 06:12:12;;;;;;;3.20;2.75;;;5.90;1.00;;;;;;7378478;19;20049;-61
2022/04/17 06:14:42;;;;;;;4.05;3.10;;;6.20;1.00;;;;;;7360031;19;20089;-61
2022/04/17 06:17:12;;;;;;;4.05;2.90;;;6.30;1.00;;;;;;7361790;19;20011;-61
2022/04/17 06:19:42;;;;;;;5.57;3.22;;;6.20;1.00;;;;;;7364061;19;20474;-62
2022/04/17 06:22:13;;;;;;;4.28;2.90;;;6.30;1.00;;;;;;7355572;19;20018;-62
2022/04/17 06:24:45;;;;;;;4.70;3.05;;;6.50;1.00;;;;;;7360711;19;20080;-61
2022/04/17 06:27:15;;;;;;;5.20;3.10;;;6.60;1.00;;;;;;7384029;19;20050;-61
2022/04/17 06:29:45;;;;;;;3.95;2.65;;;6.60;1.00;;;;;;7363115;19;20007;-62
2022/04/17 06:32:15;;;;;;;4.55;3.10;;;6.60;1.00;;;;;;7356363;19;20010;-61
2022/04/17 06:34:44;;;;;;;3.78;2.95;;;6.60;1.00;;;;;;7359559;19;20086;-61
2022/04/17 06:37:14;;;;;;;5.35;2.95;;;6.60;1.00;;;;;;7361929;19;20045;-62
2022/04/17 06:39:47;;;;;;;7.13;3.13;;;6.70;1.00;;;;;;7362475;19;20111;-62
2022/04/17 06:42:17;;;;;;;5.07;3.00;;;7.00;1.00;;;;;;7384801;19;20014;-62
2022/04/17 06:44:46;;;;;;;5.18;2.97;;;7.00;1.00;;;;;;7366308;19;20648;-62
2022/04/17 06:47:16;;;;;;;4.38;2.80;;;7.30;1.00;;;;;;7369228;19;20477;-62
2022/04/17 06:49:46;;;;;;;4.35;2.80;;;7.40;1.00;;;;;;7369847;19;20014;-62
2022/04/17 06:52:16;;;;;;;3.65;2.60;;;7.30;1.00;;;;;;7361213;19;20105;-62
2022/04/17 06:54:48;;;;;;;4.10;2.55;;;7.20;1.00;;;;;;7365965;19;20020;-62
2022/04/17 06:57:18;;;;;;;8.40;2.97;;;7.40;1.00;;;;;;7391385;19;20096;-62
2022/04/17 06:59:48;;;;;;;4.78;3.10;;;7.60;1.00;;;;;;7370128;19;20015;-62
2022/04/17 07:02:18;;;;;;;3.30;2.80;;;7.60;1.00;;;;;;7362662;19;20025;-61
2022/04/17 07:04:48;;;;;;;3.72;2.95;;;7.80;1.00;;;;;;7364893;19;20652;-63
2022/04/17 07:07:19;;;;;;;6.68;3.30;;;7.80;1.00;;;;;;7368296;19;20490;-63
2022/04/17 07:09:51;;;;;;;3.47;2.63;;;7.90;1.00;;;;;;7370326;19;20015;-62
2022/04/17 07:12:21;;;;;;;5.18;3.10;;;7.80;1.00;;;;;;7384593;19;20081;-62
2022/04/17 07:14:51;;;;;;;4.38;2.70;;;8.10;1.00;;;;;;7365540;19;20468;-61
2022/04/17 07:17:21;;;;;;;3.78;2.90;;;8.20;1.00;;;;;;7367869;19;20070;-62
2022/04/17 07:19:51;;;;;;;5.03;2.72;;;8.30;1.00;;;;;;7369009;19;20015;-61
2022/04/17 07:22:20;;;;;;;3.13;2.40;;;8.10;1.00;;;;;;7361168;19;20014;-61
2022/04/17 07:24:54;;;;;;;2.90;2.40;;;8.30;1.00;;;;;;7365633;19;20071;-61
2022/04/17 07:27:25;;;;;;;3.60;2.70;;;8.10;1.00;;;;;;7390667;19;20018;-61
2022/04/17 07:29:55;;;;;;;4.13;2.60;;;8.30;1.00;;;;;;7368708;19;20490;-61
2022/04/17 07:32:25;;;;;;;4.10;2.60;;;8.50;1.00;;;;;;7360344;19;20608;-61
2022/04/17 07:34:55;;;;;;;3.33;2.42;;;8.40;1.00;;;;;;7365789;19;20077;-61
2022/04/17 07:37:31;;;;;;;2.78;2.55;;;8.40;1.00;;;;;;7366556;19;20089;-61
2022/04/17 07:40:03;;;;;;;4.45;2.80;;;8.90;1.00;;;;;;7368879;19;20457;-61
2022/04/17 07:42:33;;;;;;;4.57;2.75;;;9.20;1.00;;;;;;7361128;19;20074;-61
2022/04/17 07:45:03;;;;;;;4.30;2.95;;;9.40;1.00;;;;;;7384939;19;20074;-61
2022/04/17 07:47:33;;;;;;;4.35;2.85;;;9.00;1.00;;;;;;7366780;19;20007;-61
2022/04/17 07:50:03;;;;;;;4.63;2.58;;;9.20;1.00;;;;;;7367240;19;20023;-61
2022/04/17 07:52:33;;;;;;;3.47;2.35;;;9.20;1.00;;;;;;7359266;19;20470;-62
2022/04/17 07:55:07;;;;;;;2.92;2.58;;;9.20;1.00;;;;;;7364805;19;20490;-61
2022/04/17 08:00:21;;;;;;;2.72;1.90;;;9.30;1.00;;;;;;7387469;19;20094;-63
2022/04/17 08:03:20;;;;;;;3.17;2.40;;;9.50;1.00;;;;;;7362944;19;20014;-63
2022/04/17 08:05:52;;;;;;;2.30;1.98;;;9.90;1.00;;;;;;7366504;19;20006;-61
2022/04/17 08:08:22;;;;;;;2.63;2.13;;;10.10;1.00;;;;;;7366972;19;20009;-62
2022/04/17 08:10:54;;;;;;;5.38;2.40;;;10.40;1.00;;;;;;7364295;19;20125;-62
2022/04/17 08:13:24;;;;;;;3.17;2.42;;;10.50;1.00;;;;;;7361885;19;20007;-62
2022/04/17 08:15:54;;;;;;;4.85;2.50;;;10.50;1.00;;;;;;7364445;19;20095;-61
2022/04/17 08:18:24;;;;;;;3.30;2.00;;;10.00;1.00;;;;;;7388525;19;20082;-61
2022/04/17 08:20:54;;;;;;;4.00;2.15;;;10.20;1.00;;;;;;7363103;19;20617;-61
2022/04/17 08:23:24;;;;;;;5.63;2.10;;;10.50;1.00;;;;;;7360985;19;20033;-61
2022/04/17 08:25:57;;;;;;;5.43;2.60;;;10.70;1.00;;;;;;7365765;19;20018;-63
2022/04/17 08:28:27;;;;;;;3.78;2.50;;;10.70;1.00;;;;;;7365781;19;20006;-62
2022/04/17 08:30:57;;;;;;;3.35;1.90;;;10.90;1.00;;;;;;7362489;19;20044;-62
2022/04/17 08:33:28;;;;;;;2.90;2.20;;;10.90;1.00;;;;;;7382704;19;20492;-61
2022/04/17 08:35:59;;;;;;;2.25;1.80;;;10.80;1.00;;;;;;7365939;19;20124;-62
2022/04/17 08:38:29;;;;;;;4.47;2.40;;;10.70;1.00;;;;;;7365970;19;20676;-62
2022/04/17 08:41:05;;;;;;;2.20;1.70;;;10.60;1.00;;;;;;7361868;19;20040;-62
2022/04/17 08:43:35;;;;;;;1.65;1.55;;;10.80;1.00;;;;;;7360118;19;20014;-62
2022/04/17 08:46:06;;;;;;;3.88;2.08;;;10.90;1.00;;;;;;7365129;19;20097;-62
2022/04/17 08:48:38;;;;;;;3.08;1.95;;;11.00;1.00;;;;;;7367338;19;20046;-61
2022/04/17 08:51:08;;;;;;;2.33;1.90;;;10.80;1.00;;;;;;7384166;19;20018;-61
2022/04/17 08:53:39;;;;;;;4.07;1.90;;;11.10;1.00;;;;;;7359268;19;20026;-62
2022/04/17 08:56:11;;;;;;;2.05;1.80;;;11.00;1.00;;;;;;7365827;19;20048;-62
2022/04/17 08:58:41;;;;;;;2.80;2.15;;;11.40;1.00;;;;;;7365525;19;20017;-62
2022/04/17 09:01:15;;;;;;;4.50;2.22;;;11.20;1.00;;;;;;7362022;19;20014;-62
2022/04/17 09:03:48;;;;;;;2.60;1.80;;;11.00;1.00;;;;;;7357655;19;20387;-62
2022/04/17 09:06:21;;;;;;;3.25;1.70;;;11.20;1.00;;;;;;7387497;19;20073;-61
2022/04/17 09:09:01;;;;;;;3.08;1.80;;;11.40;1.00;;;;;;7365818;19;20652;-61
2022/04/17 09:11:34;;;;;;;2.47;1.83;;;11.30;1.00;;;;;;7361461;19;20017;-62
2022/04/17 09:14:06;;;;;;;3.72;1.95;;;11.30;1.00;;;;;;7359622;19;20010;-61
2022/04/17 09:16:38;;;;;;;3.08;1.77;;;11.30;1.00;;;;;;7365174;19;20010;-62
2022/04/17 09:19:15;;;;;;;2.28;1.60;;;11.20;1.00;;;;;;7365033;19;20010;-62
2022/04/17 09:21:46;;;;;;;2.10;1.90;;;11.90;1.00;;;;;;7361790;19;20033;-62
2022/04/17 09:24:18;;;;;;;1.83;1.65;;;12.40;1.00;;;;;;7381233;19;20024;-62
2022/04/17 09:26:55;;;;;;;2.78;1.48;;;12.50;1.00;;;;;;7365230;19;20107;-62
2022/04/17 09:29:26;;;;;;;2.10;1.52;;;12.20;1.00;;;;;;7364301;19;20358;-61
2022/04/17 09:32:01;;;;;;;2.55;1.63;;;11.70;1.00;;;;;;7358163;19;20015;-61
2022/04/17 09:34:44;;;;;;;2.42;1.60;;;11.60;1.00;;;;;;7362804;19;20344;-62
2022/04/17 09:37:16;;;;;;;2.22;1.40;;;12.10;1.00;;;;;;7364794;19;20100;-61
2022/04/17 09:39:47;;;;;;;3.33;1.52;;;12.30;1.00;;;;;;7363818;19;20011;-63
2022/04/17 09:42:23;;;;;;;2.78;1.73;;;11.90;1.00;;;;;;7376824;19;20533;-62
2022/04/17 09:44:54;;;;;;;3.40;1.70;;;11.90;1.00;;;;;;7359720;19;20006;-62
2022/04/17 09:47:26;;;;;;;2.58;1.88;;;12.40;1.00;;;;;;7364205;19;20010;-61
2022/04/17 09:50:03;;;;;;;1.85;1.40;;;12.70;1.00;;;;;;7363376;19;20635;-62
2022/04/17 09:52:35;;;;;;;3.08;2.10;;;12.80;1.00;;;;;;7358247;19;20010;-63
2022/04/17 09:55:06;;;;;;;2.17;1.60;;;12.80;1.00;;;;;;7359872;19;20103;-62
2022/04/17 09:57:40;;;;;;;3.90;1.35;;;12.80;1.00;;;;;;7363953;19;20011;-62
2022/04/17 10:00:14;;;;;;;2.05;1.40;;;12.50;1.00;;;;;;7385077;19;20006;-62
2022/04/17 10:02:45;;;;;;;2.97;1.60;;;12.60;1.00;;;;;;7358258;19;20015;-62
2022/04/17 10:05:17;;;;;;;1.90;1.60;;;12.60;1.00;;;;;;7358955;19;20014;-62
2022/04/17 10:07:49;;;;;;;1.95;1.50;;;12.70;1.00;;;;;;7362602;19;20018;-62
2022/04/17 10:10:20;;;;;;;2.65;1.73;;;12.70;1.00;;;;;;7361213;19;20010;-62
2022/04/17 10:12:54;;;;;;;3.40;1.90;;;12.60;1.00;;;;;;7360041;19;20003;-62
2022/04/17 10:15:24;;;;;;;2.53;1.60;;;12.50;1.00;;;;;;7378600;19;20043;-62
2022/04/17 10:17:57;;;;;;;4.10;2.10;;;12.50;1.00;;;;;;7353400;19;20133;-62
2022/04/17 10:20:28;;;;;;;3.25;1.73;;;12.60;1.00;;;;;;7347725;19;20007;-63
2022/04/17 10:23:04;;;;;;;2.50;1.80;;;12.70;1.00;;;;;;7350377;19;20015;-62
2022/04/17 10:25:37;;;;;;;3.25;1.65;;;12.80;1.00;;;;;;7351210;19;20086;-62
2022/04/17 10:28:11;;;;;;;2.92;1.60;;;12.80;1.00;;;;;;7351811;19;20077;-63
2022/04/17 10:30:59;;;;;;;1.95;1.52;;;12.80;1.00;;;;;;7349391;19;20670;-63
2022/04/17 10:33:53;;;;;;;3.08;1.85;;;13.20;1.00;;;;;;7369139;19;20470;-62
2022/04/17 10:36:34;;;;;;;3.83;1.70;;;13.10;1.00;;;;;;7352212;19;20624;-62
2022/04/17 10:39:15;;;;;;;2.70;1.65;;;13.30;1.00;;;;;;7351808;19;20007;-63
2022/04/17 10:41:46;;;;;;;3.22;1.98;;;13.50;1.00;;;;;;7348498;19;20006;-62
2022/04/17 10:44:18;;;;;;;2.10;1.30;;;13.10;1.00;;;;;;7346917;19;20473;-62
2022/04/17 10:46:52;;;;;;;2.53;1.55;;;13.60;1.00;;;;;;7352272;19;20044;-63
2022/04/17 10:49:24;;;;;;;3.78;1.40;;;13.60;1.00;;;;;;7355749;19;20014;-62
2022/04/17 10:51:55;;;;;;;2.92;1.20;;;13.50;1.00;;;;;;7356180;19;20101;-62
2022/04/17 10:54:26;;;;;;;2.45;1.75;;;13.70;1.00;;;;;;7380795;19;20014;-61
2022/04/17 10:57:03;;;;;;;2.13;1.80;;;13.70;1.00;;;;;;7360982;19;20022;-63
2022/04/17 10:59:37;;;;;;;5.30;3.10;;;13.90;1.00;;;;;;7360575;19;20097;-63
2022/04/17 11:02:31;;;;;;;2.70;1.30;;;14.00;1.00;;;;;;7355247;19;20615;-63
2022/04/17 11:05:01;;;;;;;2.38;1.70;;;13.70;1.00;;;;;;7356851;19;20023;-62
2022/04/17 11:07:31;;;;;;;2.25;1.52;;;14.20;1.00;;;;;;7360131;19;20007;-62
2022/04/17 11:10:25;;;;;;;3.22;1.70;;;14.00;1.00;;;;;;7360111;19;20090;-62
2022/04/17 11:12:57;;;;;;;1.67;1.20;;;13.80;1.00;;;;;;7358748;19;20004;-62
2022/04/17 11:15:32;;;;;;;2.60;1.73;;;14.10;1.00;;;;;;7380092;19;20039;-63
2022/04/17 11:18:04;;;;;;;1.67;1.13;;;14.30;1.00;;;;;;7358523;19;20015;-62
2022/04/17 11:20:35;;;;;;;2.05;1.10;;;14.30;1.00;;;;;;7350253;19;20017;-63
2022/04/17 11:23:05;;;;;;;2.00;1.13;;;14.10;1.00;;;;;;7355101;19;20203;-63
2022/04/17 11:25:53;;;;;;;2.08;1.13;;;14.30;1.00;;;;;;7357809;19;20085;-62
2022/04/17 11:28:38;;;;;;;3.97;1.50;;;14.50;1.00;;;;;;7364493;19;20085;-63
2022/04/17 11:31:11;;;;;;;2.05;1.50;;;14.40;1.00;;;;;;7363505;19;20038;-62
2022/04/17 11:33:44;;;;;;;2.53;1.40;;;14.20;1.00;;;;;;7358844;19;20046;-62
2022/04/17 11:36:14;;;;;;;3.95;1.58;;;14.20;1.00;;;;;;7389433;19;20790;-62
2022/04/17 11:38:45;;;;;;;5.10;2.00;;;13.90;1.00;;;;;;7366016;19;20017;-61
2022/04/17 11:41:16;;;;;;;2.63;1.90;;;14.30;1.00;;;;;;7363163;19;20117;-62
2022/04/17 11:44:01;;;;;;;1.42;1.10;;;14.20;1.00;;;;;;7361415;19;20013;-63
2022/04/17 11:46:33;;;;;;;1.58;1.30;;;14.30;1.00;;;;;;7366741;19;20114;-62
2022/04/17 11:49:03;;;;;;;2.45;1.30;;;14.10;1.00;;;;;;7366126;19;20462;-63
2022/04/17 11:51:33;;;;;;;2.28;1.40;;;14.40;1.00;;;;;;7384523;19;20092;-63
2022/04/17 11:54:03;;;;;;;4.35;1.63;;;14.50;1.00;;;;;;7361225;19;20085;-63
2022/04/17 11:56:54;;;;;;;2.90;1.60;;;14.40;1.00;;;;;;7367508;19;20014;-62
2022/04/17 11:59:24;;;;;;;1.85;1.40;;;14.70;1.00;;;;;;7365523;19;20013;-63
2022/04/17 12:02:13;;;;;;;2.35;1.40;;;14.40;1.00;;;;;;7362225;19;20010;-63
2022/04/17 12:04:43;;;;;;;1.90;1.40;;;14.40;1.00;;;;;;7364971;19;20010;-62
2022/04/17 12:07:14;;;;;;;2.95;2.00;;;14.50;1.00;;;;;;7366536;19;20078;-63
2022/04/17 12:09:44;;;;;;;3.55;1.40;;;15.00;1.00;;;;;;7367137;19;20094;-63
2022/04/17 12:12:14;;;;;;;2.30;1.38;;;15.10;1.00;;;;;;7380928;19;20010;-63
2022/04/17 12:14:45;;;;;;;4.72;2.85;;;14.90;1.00;;;;;;7362725;19;20019;-62
2022/04/17 12:17:23;;;;;;;2.72;1.52;;;14.70;1.00;;;;;;7365944;19;20037;-62
2022/04/17 12:19:53;;;;;;;3.03;2.28;;;14.50;1.00;;;;;;7365671;19;20019;-62
2022/04/17 12:22:24;;;;;;;1.77;1.30;;;14.60;1.00;;;;;;7359535;19;20102;-63
2022/04/17 12:24:55;;;;;;;1.73;1.42;;;14.90;1.00;;;;;;7362031;19;20020;-63
2022/04/17 12:27:25;;;;;;;3.83;1.77;;;14.50;1.00;;;;;;7386174;19;20097;-63
2022/04/17 12:29:56;;;;;;;4.18;2.50;;;14.80;1.00;;;;;;7362238;19;20025;-62
2022/04/17 12:32:29;;;;;;;1.70;1.15;;;15.10;1.00;;;;;;7357715;19;20023;-62
2022/04/17 12:35:00;;;;;;;3.85;1.70;;;14.70;1.00;;;;;;7363456;19;20014;-62
2022/04/17 12:37:32;;;;;;;2.78;1.58;;;14.70;1.00;;;;;;7366857;19;20093;-63
2022/04/17 12:40:12;;;;;;;2.85;1.50;;;15.10;1.00;;;;;;7364137;19;20065;-63
2022/04/17 12:42:43;;;;;;;3.50;1.40;;;15.30;1.00;;;;;;7360763;19;20011;-62
2022/04/17 12:45:25;;;;;;;2.00;1.20;;;15.20;1.00;;;;;;7383431;19;20029;-63
2022/04/17 12:48:10;;;;;;;1.63;1.30;;;15.00;1.00;;;;;;7363864;19;20014;-63
2022/04/17 12:50:39;;;;;;;3.53;1.67;;;15.50;1.00;;;;;;7360365;19;21087;-64
2022/04/17 12:53:15;;;;;;;2.22;1.02;;;15.50;1.00;;;;;;7361263;19;20011;-63
2022/04/17 12:55:45;;;;;;;3.08;1.30;;;15.10;1.00;;;;;;7361949;19;20017;-63
2022/04/17 12:58:15;;;;;;;1.70;1.10;;;15.20;1.00;;;;;;7364223;19;20058;-63
2022/04/17 13:00:45;;;;;;;3.38;1.17;;;15.40;1.00;;;;;;7360166;19;20330;-65
2022/04/17 13:03:18;;;;;;;2.28;1.60;;;15.40;1.00;;;;;;7382915;19;20031;-63
2022/04/17 13:06:01;;;;;;;2.67;1.20;;;15.40;1.00;;;;;;7363652;19;20024;-63
2022/04/17 13:08:31;;;;;;;2.67;1.27;;;15.00;1.00;;;;;;7364681;19;20086;-63
2022/04/17 13:11:01;;;;;;;2.28;1.00;;;15.10;1.00;;;;;;7360760;19;20075;-63
2022/04/17 13:13:38;;;;;;;3.00;1.67;;;15.50;1.00;;;;;;7361031;19;20097;-62
2022/04/17 13:16:09;;;;;;;2.15;1.25;;;15.60;1.00;;;;;;7364399;19;20466;-62
2022/04/17 13:18:42;;;;;;;2.63;1.23;;;15.70;1.00;;;;;;7363982;19;20556;-63
2022/04/17 13:21:32;;;;;;;2.88;1.45;;;15.80;1.00;;;;;;7383144;19;20359;-63
2022/04/17 13:24:03;;;;;;;2.85;1.10;;;15.50;1.00;;;;;;7358976;19;20021;-64
2022/04/17 13:26:33;;;;;;;2.95;1.20;;;15.40;1.00;;;;;;7361965;19;20014;-63
2022/04/17 13:29:03;;;;;;;1.70;1.10;;;15.80;1.00;;;;;;7363541;19;20078;-63
2022/04/17 13:31:33;;;;;;;3.70;1.67;;;15.60;1.00;;;;;;7360371;19;20017;-62
2022/04/17 13:34:06;;;;;;;2.47;1.27;;;15.10;1.00;;;;;;7359586;19;20381;-62
2022/04/17 13:36:36;;;;;;;3.22;1.20;;;15.40;1.00;;;;;;7363473;19;20627;-63
2022/04/17 13:39:06;;;;;;;2.30;1.70;;;15.50;1.00;;;;;;7385140;19;20011;-63
2022/04/17 13:41:36;;;;;;;2.83;1.33;;;15.50;1.00;;;;;;7359487;19;20011;-63